Time;durP1;ratioP1;P1;durP2;ratioP2;P2;SDS_P1;SDS_P2;PMS_P1;PMS_P2;Temp;Humidity;BMP_temperature;BMP_pressure;BME280_temperature;BME280_humidity;BME280_pressure;Samples;Min_cycle;Max_cycle;Signal;HPM_P1;HPM_P2
2021/06/25 00:01:15;;;;;;;14.05;12.75;;;19.40;92.50;;;19.47;73.85;94960.78;4967110;28;20203;-89
2021/06/25 00:03:41;;;;;;;12.20;11.10;;;19.40;92.50;;;19.42;74.47;94942.94;4892667;29;20241;-89
2021/06/25 00:06:08;;;;;;;11.50;10.40;;;19.40;92.50;;;19.41;74.74;94946.63;4788685;29;20229;-89
2021/06/25 00:08:34;;;;;;;12.50;11.30;;;19.40;92.50;;;19.37;74.29;94956.13;4721419;30;20237;-88
2021/06/25 00:12:54;;;;;;;14.43;13.02;;;19.30;92.50;;;19.23;73.93;94918.47;5151777;27;20644;-89
2021/06/25 00:15:21;;;;;;;12.50;11.35;;;19.30;92.50;;;19.24;74.26;94932.56;5111114;28;20222;-89
2021/06/25 00:17:48;;;;;;;12.80;11.60;;;19.30;92.40;;;19.13;74.23;94913.81;5085971;28;20304;-88
2021/06/25 00:20:15;;;;;;;14.85;13.45;;;19.20;92.40;;;19.12;74.12;94925.50;5100853;28;20224;-88
2021/06/25 00:22:44;;;;;;;15.15;13.73;;;19.20;92.30;;;19.08;74.00;94918.25;5023357;28;20293;-88
2021/06/25 00:25:11;;;;;;;15.25;13.75;;;19.20;92.30;;;19.00;73.92;94922.94;4955395;28;20532;-89
2021/06/25 00:27:38;;;;;;;15.27;13.88;;;19.10;92.40;;;18.94;74.36;94939.88;4940640;28;20685;-88
2021/06/25 00:30:06;;;;;;;15.18;13.77;;;19.00;92.30;;;18.91;74.32;94932.41;4816710;29;20355;-89
2021/06/25 00:34:20;;;;;;;16.50;14.77;;;19.00;92.40;;;18.78;74.64;94938.81;5126224;27;20643;-88
2021/06/25 00:36:47;;;;;;;15.98;14.48;;;18.90;92.40;;;18.65;74.71;94905.44;5076980;28;20201;-88
2021/06/25 00:39:14;;;;;;;16.30;14.80;;;18.90;92.40;;;18.73;74.66;94918.28;5068186;28;20264;-89
2021/06/25 00:41:41;;;;;;;14.25;12.95;;;18.80;92.40;;;18.65;74.73;94905.44;5028560;28;20651;-86
2021/06/25 00:44:16;;;;;;;13.82;12.55;;;18.80;92.40;;;18.66;74.59;94930.94;4991011;28;20225;-89
2021/06/25 00:46:44;;;;;;;13.00;11.80;;;18.80;92.40;;;18.65;74.44;94929.34;4888025;29;20214;-88
2021/06/25 00:49:12;;;;;;;10.93;9.88;;;18.70;92.30;;;18.62;74.97;94935.13;4785493;29;20262;-86
2021/06/25 00:51:39;;;;;;;10.32;9.32;;;18.70;92.30;;;18.59;74.86;94948.06;4666649;30;20240;-88
2021/06/25 00:54:18;;;;;;;10.43;9.43;;;18.70;92.30;;;18.56;74.86;94952.81;5141835;27;20618;-88
2021/06/25 00:56:47;;;;;;;11.35;9.13;;;18.60;92.40;;;18.55;75.30;94945.91;5125703;28;20264;-89
2021/06/25 00:59:13;;;;;;;10.38;9.48;;;18.60;92.50;;;18.55;75.04;94958.38;5093820;28;20228;-88
2021/06/25 01:01:40;;;;;;;9.50;8.60;;;18.60;92.50;;;18.52;75.30;94949.03;5062375;28;20256;-88
2021/06/25 01:04:07;;;;;;;8.88;7.97;;;18.60;92.60;;;18.52;75.41;94937.63;5028277;28;20235;-89
2021/06/25 01:06:34;;;;;;;9.02;8.13;;;18.50;92.60;;;18.51;75.26;94942.13;4964758;28;20219;-87
2021/06/25 01:09:04;;;;;;;7.88;7.18;;;18.50;92.60;;;18.55;75.01;94943.25;4867525;29;20232;-88
2021/06/25 01:11:31;;;;;;;6.45;5.88;;;18.50;92.60;;;18.51;75.14;94941.31;4692225;29;20643;-88
2021/06/25 01:16:34;;;;;;;6.25;5.75;;;18.60;92.70;;;18.52;75.06;94954.34;5150923;27;20652;-88
2021/06/25 01:19:01;;;;;;;6.95;6.35;;;18.50;92.60;;;18.54;75.03;94956.75;5103126;27;20714;-88
2021/06/25 01:21:28;;;;;;;7.32;6.60;;;18.50;92.70;;;18.54;75.31;94964.72;5054246;28;20211;-88
2021/06/25 01:23:54;;;;;;;7.13;6.45;;;18.50;92.70;;;18.54;75.59;94970.88;5031775;28;20704;-88
2021/06/25 01:26:21;;;;;;;7.50;6.80;;;18.50;92.80;;;18.51;75.30;94968.69;5033364;28;20227;-88
2021/06/25 01:28:47;;;;;;;7.07;6.38;;;18.50;92.80;;;18.57;75.60;94974.88;4965593;28;20249;-89
2021/06/25 01:31:14;;;;;;;6.70;6.10;;;18.50;92.80;;;18.59;75.79;94971.97;4885272;29;20300;-88
2021/06/25 01:33:40;;;;;;;6.68;6.07;;;18.50;92.90;;;18.57;75.43;94961.59;4774082;29;20245;-87
2021/06/25 01:38:47;;;;;;;6.70;6.10;;;18.50;92.90;;;18.60;75.37;94958.44;5144998;27;20593;-88
2021/06/25 01:41:15;;;;;;;7.15;6.45;;;18.60;92.90;;;18.64;75.53;94959.59;5085841;28;20201;-88
2021/06/25 01:43:44;;;;;;;6.85;6.25;;;18.60;92.90;;;18.62;75.63;94964.34;5052384;28;20237;-89
2021/06/25 01:46:14;;;;;;;7.82;7.13;;;18.60;92.80;;;18.62;75.30;94972.31;5062466;28;20275;-88
2021/06/25 01:48:41;;;;;;;8.77;7.97;;;18.60;92.70;;;18.56;75.06;94976.72;5000435;28;20315;-88
2021/06/25 01:51:08;;;;;;;8.73;7.93;;;18.60;92.70;;;18.55;75.23;94987.59;4865195;29;20209;-88
2021/06/25 01:53:34;;;;;;;9.05;7.78;;;18.60;92.60;;;18.51;75.05;94984.59;4785530;29;20332;-84
2021/06/25 01:56:02;;;;;;;9.02;8.20;;;18.60;92.60;;;18.51;75.24;94989.13;4724149;29;20711;-88
2021/06/25 02:00:13;;;;;;;9.43;8.57;;;18.50;92.60;;;18.45;75.25;94977.59;5119991;27;20639;-87
2021/06/25 02:02:40;;;;;;;8.85;7.95;;;18.50;92.60;;;18.36;75.38;94976.41;5070423;28;20205;-89
2021/06/25 02:05:11;;;;;;;8.15;7.35;;;18.50;92.90;;;18.43;75.22;94984.19;5067742;28;20595;-88
2021/06/25 02:07:38;;;;;;;7.78;7.07;;;18.40;92.60;;;18.42;75.26;94979.94;5021295;28;20207;-88
2021/06/25 02:10:08;;;;;;;6.90;6.30;;;18.40;92.70;;;18.40;75.15;94990.81;4988162;28;20313;-88
2021/06/25 02:12:36;;;;;;;7.32;6.63;;;18.40;92.60;;;18.33;75.28;94977.66;5002717;28;20205;-88
2021/06/25 02:15:06;;;;;;;7.45;6.75;;;18.40;92.60;;;18.34;75.13;94981.94;4935146;28;20603;-87
2021/06/25 02:17:33;;;;;;;6.25;5.65;;;18.40;92.60;;;18.34;74.83;94994.41;4810092;29;20223;-88
2021/06/25 02:21:39;;;;;;;7.07;6.35;;;18.40;92.60;;;18.21;75.08;94988.34;5151522;27;20635;-88
2021/06/25 02:24:06;;;;;;;7.82;7.13;;;18.30;92.50;;;18.19;74.90;94997.59;5100624;28;20230;-89
2021/06/25 02:26:33;;;;;;;7.07;6.43;;;18.30;92.30;;;18.07;74.56;94977.19;5062467;28;20282;-87
2021/06/25 02:29:00;;;;;;;6.07;5.57;;;18.20;92.40;;;18.07;74.97;94997.63;5036664;28;20270;-88
2021/06/25 02:31:27;;;;;;;5.15;4.65;;;18.20;92.40;;;18.03;74.90;94989.34;5034859;28;20201;-88
2021/06/25 02:33:53;;;;;;;6.15;5.20;;;18.10;92.40;;;18.01;74.81;95003.91;4931869;28;20240;-89
2021/06/25 02:36:19;;;;;;;6.55;5.93;;;18.10;92.40;;;17.95;74.67;94991.56;4940273;28;20231;-88
2021/06/25 02:38:46;;;;;;;6.57;5.85;;;18.10;92.50;;;17.96;74.97;94998.50;4776673;29;20393;-88
2021/06/25 02:43:35;;;;;;;5.88;5.38;;;18.00;92.50;;;17.89;74.91;95006.53;5131241;27;20576;-89
2021/06/25 02:46:01;;;;;;;6.55;5.95;;;18.00;92.40;;;17.88;75.02;95007.59;5092375;28;20208;-89
2021/06/25 02:48:28;;;;;;;6.82;6.22;;;17.90;92.40;;;17.84;74.85;95006.47;5088713;28;20237;-89
2021/06/25 02:50:54;;;;;;;7.57;6.28;;;17.90;92.40;;;17.79;75.09;94993.88;5056368;28;20208;-86
2021/06/25 02:53:21;;;;;;;6.85;6.15;;;17.90;92.40;;;17.77;74.84;94998.63;5042307;28;20196;-88
2021/06/25 02:55:50;;;;;;;7.28;6.68;;;17.80;92.50;;;17.73;75.13;94986.88;4972607;28;20312;-88
2021/06/25 02:58:22;;;;;;;6.95;6.35;;;17.80;92.60;;;17.75;75.47;94988.25;4945378;28;20214;-88
2021/06/25 03:00:49;;;;;;;6.88;6.28;;;17.80;92.70;;;17.77;75.54;94991.47;4706891;29;20225;-88
2021/06/25 03:05:02;;;;;;;6.68;6.07;;;17.80;92.70;;;17.74;75.02;94977.88;5135882;27;20652;-88
2021/06/25 03:07:29;;;;;;;7.00;6.32;;;17.80;92.70;;;17.68;74.98;94978.81;5100467;28;20263;-89
2021/06/25 03:09:55;;;;;;;7.93;6.93;;;17.80;92.70;;;17.63;75.14;94970.75;5068029;28;20732;-89
2021/06/25 03:12:22;;;;;;;7.38;6.68;;;17.80;92.70;;;17.69;75.70;94972.47;5075240;28;20206;-87
2021/06/25 03:14:49;;;;;;;7.70;7.00;;;17.80;92.80;;;17.73;75.24;94981.56;5054742;28;20232;-88
2021/06/25 03:17:15;;;;;;;8.15;7.35;;;17.70;92.80;;;17.74;75.32;94980.53;4964885;28;20675;-88
2021/06/25 03:19:42;;;;;;;9.18;8.27;;;17.80;92.80;;;17.74;75.56;94981.31;4984047;28;20782;-88
2021/06/25 03:22:09;;;;;;;9.35;8.45;;;17.80;92.80;;;17.71;75.54;94973.84;4878240;28;20665;-89
2021/06/25 03:27:29;;;;;;;7.95;7.15;;;17.70;92.80;;;17.73;75.60;94976.25;5148637;27;20298;-89
2021/06/25 03:29:55;;;;;;;7.50;6.80;;;17.70;92.80;;;17.75;75.79;94987.44;5105328;28;20232;-88
2021/06/25 03:32:22;;;;;;;7.45;6.75;;;17.70;92.80;;;17.67;75.90;94978.00;5085886;28;20256;-89
2021/06/25 03:34:49;;;;;;;8.52;7.72;;;17.80;92.80;;;17.79;75.37;94987.78;5090089;28;20252;-88
2021/06/25 03:37:16;;;;;;;9.75;8.85;;;17.80;92.90;;;17.79;75.74;94993.09;5099167;28;20244;-88
2021/06/25 03:39:42;;;;;;;10.98;9.65;;;17.80;93.00;;;17.75;75.67;94982.16;5018780;28;20232;-89
2021/06/25 03:42:10;;;;;;;10.90;9.85;;;17.80;93.10;;;17.83;76.17;94981.75;4968735;28;20228;-88
2021/06/25 03:44:37;;;;;;;11.30;10.20;;;17.80;93.10;;;17.86;76.04;94980.50;4823805;29;20239;-88
2021/06/25 03:49:10;;;;;;;9.77;8.82;;;17.80;93.20;;;17.93;76.46;94983.78;5141479;27;20591;-89
2021/06/25 03:51:37;;;;;;;9.73;8.57;;;17.90;93.30;;;17.95;76.28;94975.66;5107460;28;20238;-89
2021/06/25 03:54:04;;;;;;;11.13;8.73;;;17.90;93.30;;;17.99;75.78;94980.25;5103429;28;20234;-87
2021/06/25 03:56:30;;;;;;;10.98;9.88;;;17.90;93.20;;;18.00;75.80;94987.16;5049348;28;20210;-87
2021/06/25 03:58:57;;;;;;;10.90;9.90;;;17.90;93.10;;;18.01;75.50;94985.31;5050357;28;20244;-89
2021/06/25 04:01:23;;;;;;;10.73;9.73;;;18.00;93.10;;;17.99;75.42;94987.41;4961397;28;20212;-89
2021/06/25 04:03:50;;;;;;;9.98;9.00;;;17.90;93.10;;;17.99;75.64;94990.88;4920646;28;20287;-89
2021/06/25 04:06:17;;;;;;;9.77;8.77;;;17.90;93.10;;;17.98;75.73;94997.22;4767589;29;20217;-87
2021/06/25 04:10:51;;;;;;;10.07;9.02;;;17.90;93.10;;;17.93;76.27;94995.22;5143290;27;20653;-87
2021/06/25 04:13:18;;;;;;;10.43;9.43;;;18.00;93.20;;;17.98;76.58;94983.13;5111313;27;20664;-86
2021/06/25 04:15:45;;;;;;;11.05;9.90;;;18.00;93.30;;;18.03;76.45;94991.22;5066661;28;20288;-87
2021/06/25 04:18:11;;;;;;;9.98;9.07;;;18.00;93.30;;;18.04;75.98;94990.97;5053793;28;20250;-86
2021/06/25 04:20:38;;;;;;;9.85;8.88;;;18.00;93.30;;;18.09;76.40;94992.91;4993647;28;20230;-87
2021/06/25 04:23:05;;;;;;;9.52;8.63;;;18.00;93.40;;;18.12;76.07;94995.06;4979980;28;20221;-87
2021/06/25 04:25:31;;;;;;;8.85;8.00;;;18.00;93.40;;;18.12;75.96;94995.06;4839067;29;20250;-87
2021/06/25 04:27:58;;;;;;;9.40;8.40;;;18.10;93.30;;;18.13;75.97;95003.88;4741253;30;20213;-85
2021/06/25 04:31:52;;;;;;;8.10;7.22;;;18.10;93.30;;;18.08;76.09;95002.72;5148994;27;20564;-87
2021/06/25 04:34:20;;;;;;;7.90;7.20;;;18.10;93.30;;;18.14;75.43;95010.75;5099889;27;20717;-87
2021/06/25 04:36:47;;;;;;;8.32;7.32;;;18.10;93.20;;;18.12;75.70;95012.88;5071231;28;20205;-87
2021/06/25 04:39:14;;;;;;;7.75;6.97;;;18.10;93.20;;;18.10;76.14;95013.06;5040044;28;20227;-87
2021/06/25 04:41:41;;;;;;;7.88;7.13;;;18.10;93.30;;;18.12;76.13;95016.31;5070647;28;20724;-87
2021/06/25 04:44:07;;;;;;;7.43;6.72;;;18.10;93.30;;;18.13;76.08;95017.13;5025260;28;20245;-83
2021/06/25 04:46:35;;;;;;;7.13;6.43;;;18.10;93.40;;;18.16;76.08;95014.81;4973080;28;20652;-83
2021/06/25 04:49:02;;;;;;;6.78;6.18;;;18.10;93.40;;;18.16;76.10;95006.84;4838991;29;20602;-84
2021/06/25 04:53:15;;;;;;;6.43;5.80;;;18.10;93.40;;;18.21;76.81;95014.06;5133472;27;20534;-84
2021/06/25 04:55:42;;;;;;;6.60;6.00;;;18.10;93.60;;;18.28;76.75;95016.59;5089963;28;20205;-84
2021/06/25 04:58:11;;;;;;;6.80;5.93;;;18.20;93.70;;;18.33;76.67;95000.75;5097841;28;20230;-83
2021/06/25 05:00:40;;;;;;;6.18;5.57;;;18.20;93.70;;;18.39;76.72;95008.59;5065854;28;20209;-84
2021/06/25 05:03:08;;;;;;;6.10;5.53;;;18.30;93.80;;;18.41;77.14;95003.03;5066241;28;20286;-84
2021/06/25 05:05:38;;;;;;;5.50;5.00;;;18.30;93.80;;;18.50;76.55;95009.56;4961972;28;20330;-84
2021/06/25 05:08:05;;;;;;;5.35;4.88;;;18.40;93.90;;;18.56;76.87;95005.16;4945170;28;20205;-83
2021/06/25 05:10:46;;;;;;;5.20;4.80;;;18.40;93.80;;;18.61;76.78;95009.75;4672697;29;20300;-82
2021/06/25 05:13:23;;;;;;;5.63;5.03;;;18.40;93.80;;;18.61;76.04;95005.22;5142709;27;20302;-84
2021/06/25 05:15:50;;;;;;;4.93;4.30;;;18.40;93.70;;;18.63;76.55;94999.69;5081568;28;20209;-82
2021/06/25 05:18:20;;;;;;;5.25;4.20;;;18.40;93.70;;;18.65;76.19;95016.19;5081433;28;20206;-83
2021/06/25 05:21:07;;;;;;;4.82;4.35;;;18.50;93.60;;;18.63;76.11;95011.13;4982870;28;20241;-82
2021/06/25 05:23:34;;;;;;;5.32;4.88;;;18.50;93.70;;;18.63;76.32;95020.94;4962280;28;20767;-82
2021/06/25 05:26:02;;;;;;;4.85;4.45;;;18.60;93.70;;;18.67;76.47;95016.75;4923951;29;20822;-82
2021/06/25 05:28:29;;;;;;;5.15;4.65;;;18.50;93.80;;;18.67;76.72;95022.06;4877663;29;20210;-82
2021/06/25 05:30:55;;;;;;;6.43;5.10;;;18.60;93.90;;;18.77;76.89;95038.16;4758244;29;20215;-83
2021/06/25 05:33:33;;;;;;;5.07;4.57;;;18.60;94.00;;;18.86;77.14;95030.63;5145181;27;20327;-83
2021/06/25 05:36:00;;;;;;;5.63;5.13;;;18.60;94.20;;;18.90;76.81;95017.66;5083169;28;20186;-83
2021/06/25 05:38:26;;;;;;;5.35;4.85;;;18.70;94.40;;;19.06;77.47;95024.84;5063262;28;20237;-82
2021/06/25 05:40:53;;;;;;;6.15;4.90;;;18.70;94.50;;;19.19;77.61;95039.69;5075289;28;20216;-83
2021/06/25 05:43:20;;;;;;;5.97;5.03;;;18.90;94.60;;;19.28;77.62;95040.88;5040462;28;20296;-83
2021/06/25 05:45:46;;;;;;;5.38;4.88;;;18.90;94.60;;;19.36;77.87;95018.38;4906385;28;20226;-83
2021/06/25 05:48:13;;;;;;;5.63;5.03;;;19.00;94.80;;;19.52;77.39;95032.69;4851022;29;20215;-82
2021/06/25 05:50:39;;;;;;;5.13;4.65;;;19.10;94.70;;;19.63;77.63;95023.78;4685447;30;20250;-82
2021/06/25 05:55:42;;;;;;;5.30;4.80;;;19.30;94.80;;;19.79;76.72;95026.66;5163840;27;20301;-83
2021/06/25 05:58:09;;;;;;;4.55;4.22;;;19.40;94.60;;;19.81;76.24;95011.22;5109176;27;20207;-83
2021/06/25 06:00:36;;;;;;;5.38;4.53;;;19.40;94.40;;;19.82;76.29;95013.66;5122809;27;20248;-82
2021/06/25 06:03:03;;;;;;;4.57;4.18;;;19.50;94.40;;;19.82;76.34;95021.66;5126201;27;20207;-82
2021/06/25 06:05:34;;;;;;;4.40;4.00;;;19.50;94.20;;;19.86;76.63;95022.00;5092107;28;20681;-83
2021/06/25 06:08:02;;;;;;;4.43;4.03;;;19.50;94.20;;;19.88;76.26;95014.53;5036562;28;20213;-82
2021/06/25 06:10:29;;;;;;;4.70;4.30;;;19.60;94.20;;;19.89;75.88;95034.00;4952985;28;20320;-83
2021/06/25 06:12:57;;;;;;;5.00;4.53;;;19.60;94.10;;;19.92;76.46;95029.00;4910891;28;20229;-82
2021/06/25 06:16:49;;;;;;;5.30;4.78;;;19.70;94.30;;;20.00;76.82;95043.72;5150796;27;21135;-82
2021/06/25 06:19:16;;;;;;;5.05;4.65;;;19.70;94.50;;;20.10;76.83;95043.03;5087825;27;20680;-82
2021/06/25 06:32:50;;;;;;;4.82;4.25;;;20.00;94.50;;;20.41;76.28;95041.50;4865006;29;20221;-82
2021/06/25 06:35:16;;;;;;;4.78;4.38;;;20.10;94.50;;;20.46;76.63;95038.91;4739292;29;20283;-83
2021/06/25 06:38:00;;;;;;;5.20;4.80;;;20.10;94.50;;;20.55;77.02;95046.44;5133845;27;20834;-83
2021/06/25 06:40:28;;;;;;;5.32;4.82;;;20.20;94.70;;;20.62;76.88;95045.19;5066954;28;20518;-83
2021/06/25 06:42:55;;;;;;;6.28;5.40;;;20.20;94.60;;;20.66;75.84;95045.47;5056569;28;20252;-83
2021/06/25 06:45:24;;;;;;;5.20;4.75;;;20.30;94.50;;;20.75;77.07;95052.00;5009481;28;20231;-82
2021/06/25 06:47:50;;;;;;;5.07;4.68;;;20.30;94.80;;;20.87;77.23;95057.19;4965923;28;20194;-83
2021/06/25 06:50:18;;;;;;;4.68;4.28;;;20.40;95.00;;;20.98;76.71;95058.06;4899637;29;20676;-82
2021/06/25 06:52:50;;;;;;;5.88;4.88;;;20.50;95.10;;;21.09;77.06;95045.59;4827898;29;20734;-82
2021/06/25 06:55:20;;;;;;;5.05;4.55;;;20.60;95.10;;;21.19;76.47;95045.69;4693680;30;20253;-83
2021/06/25 07:00:08;;;;;;;4.22;3.83;;;20.60;95.00;;;21.32;76.08;95062.31;5134229;27;21171;-82
2021/06/25 07:02:45;;;;;;;3.92;3.63;;;20.80;94.70;;;21.30;75.07;95059.09;5100771;28;20206;-82
2021/06/25 07:05:15;;;;;;;3.75;3.45;;;20.90;94.30;;;21.25;75.19;95066.03;5097234;28;20218;-82
2021/06/25 07:07:42;;;;;;;3.83;3.53;;;20.90;94.10;;;21.15;74.57;95055.25;5055097;28;20213;-82
2021/06/25 07:10:10;;;;;;;3.72;3.42;;;20.90;94.00;;;21.14;75.42;95064.34;5121922;27;20242;-83
2021/06/25 07:12:39;;;;;;;3.95;3.60;;;20.80;94.10;;;21.21;76.07;95064.91;5034423;28;20609;-82
2021/06/25 07:15:07;;;;;;;4.03;3.72;;;20.90;94.40;;;21.26;75.86;95072.97;4891554;29;20235;-83
2021/06/25 07:20:17;;;;;;;4.00;3.70;;;20.90;94.60;;;21.40;75.92;95077.88;5132019;27;20668;-83
2021/06/25 07:22:44;;;;;;;4.15;3.05;;;20.90;94.50;;;21.37;75.14;95086.38;5090510;28;20277;-82
2021/06/25 07:25:12;;;;;;;3.38;3.10;;;20.90;94.10;;;21.31;74.88;95079.38;5084785;28;20211;-82
2021/06/25 07:27:40;;;;;;;3.08;2.88;;;20.90;94.20;;;21.21;74.40;95085.44;5068537;28;20214;-83
2021/06/25 07:30:08;;;;;;;3.42;3.13;;;21.00;93.90;;;21.26;75.87;95080.97;5023384;28;20255;-82
2021/06/25 07:32:35;;;;;;;3.95;3.65;;;20.90;94.30;;;21.37;76.76;95073.03;4982259;28;20268;-82
2021/06/25 07:35:04;;;;;;;3.95;3.65;;;20.90;94.70;;;21.59;78.13;95071.09;4862899;29;20331;-83
2021/06/25 07:37:31;;;;;;;3.97;3.58;;;21.00;95.20;;;21.85;77.93;95078.41;4730470;30;20225;-83
2021/06/25 07:42:29;;;;;;;3.70;3.40;;;21.10;95.50;;;22.30;77.31;95084.22;5148223;27;20414;-82
2021/06/25 07:44:56;;;;;;;3.80;3.40;;;21.50;95.80;;;22.47;77.39;95090.22;5091329;28;20681;-83
2021/06/25 07:47:22;;;;;;;3.40;3.10;;;21.60;95.70;;;22.57;76.54;95089.44;5056780;28;20268;-80
2021/06/25 07:49:49;;;;;;;3.80;3.50;;;21.70;95.50;;;22.63;76.53;95088.38;5032408;28;20694;-82
2021/06/25 07:52:16;;;;;;;5.22;3.47;;;21.90;95.30;;;22.68;76.59;95083.06;4989668;28;20211;-83
2021/06/25 07:54:42;;;;;;;3.65;3.35;;;21.90;95.30;;;22.79;76.19;95091.06;4925693;28;20248;-83
2021/06/25 07:57:09;;;;;;;3.35;3.08;;;22.00;95.00;;;22.80;75.86;95088.16;4757151;29;20224;-83
2021/06/25 07:59:35;;;;;;;3.10;2.90;;;22.00;94.80;;;22.75;74.46;95087.34;4582081;30;20275;-83
2021/06/25 08:04:44;;;;;;;3.10;2.80;;;22.10;94.40;;;22.54;74.12;95090.78;5125643;27;20669;-83
2021/06/25 08:07:15;;;;;;;3.08;2.67;;;22.00;93.90;;;22.43;74.27;95091.00;5062283;28;20738;-83
2021/06/25 08:09:43;;;;;;;2.97;2.78;;;22.00;93.80;;;22.33;74.13;95089.88;5055591;28;20237;-83
2021/06/25 08:12:12;;;;;;;3.97;3.03;;;21.90;93.70;;;22.23;73.94;95085.28;5014491;28;20677;-82
2021/06/25 08:14:39;;;;;;;3.00;2.70;;;21.90;93.60;;;22.12;74.05;95086.31;4885315;29;20240;-82
2021/06/25 08:17:07;;;;;;;2.65;2.45;;;21.80;93.50;;;22.01;73.77;95084.66;4845001;29;20220;-83
2021/06/25 08:19:35;;;;;;;2.55;2.35;;;21.70;93.30;;;21.88;74.07;95086.72;4795144;29;20265;-81
2021/06/25 08:22:03;;;;;;;2.10;1.90;;;21.60;93.30;;;21.82;74.63;95097.66;4706253;29;20302;-82
2021/06/25 08:27:02;;;;;;;3.03;2.70;;;21.60;93.40;;;21.80;75.51;95097.91;5141431;27;20366;-82
2021/06/25 08:29:29;;;;;;;2.85;2.38;;;21.50;93.90;;;21.88;75.41;95096.59;5082799;28;20220;-83
2021/06/25 08:31:56;;;;;;;2.55;2.35;;;21.50;94.10;;;21.95;76.33;95091.84;5068380;28;20303;-83
2021/06/25 08:34:22;;;;;;;2.72;2.50;;;21.50;94.30;;;22.05;75.70;95091.88;5020362;28;20469;-83
2021/06/25 08:36:49;;;;;;;2.60;2.40;;;21.50;94.30;;;22.03;73.82;95099.38;4928661;28;20343;-82
2021/06/25 08:39:15;;;;;;;3.67;2.92;;;21.50;94.00;;;22.00;71.87;95091.84;4827205;29;20231;-82
2021/06/25 08:41:43;;;;;;;2.92;2.70;;;21.60;93.70;;;22.01;73.25;95092.69;4829063;29;20260;-82
2021/06/25 08:44:09;;;;;;;2.85;2.65;;;21.50;93.70;;;21.99;73.91;95089.47;4577344;30;20263;-82
2021/06/25 08:48:45;;;;;;;3.25;2.95;;;21.50;93.80;;;21.96;73.42;95084.63;5134203;27;21108;-82
2021/06/25 08:51:12;;;;;;;3.10;2.80;;;21.50;93.60;;;22.02;73.90;95095.09;5072023;28;20204;-82
2021/06/25 08:53:38;;;;;;;3.10;2.90;;;21.50;94.00;;;22.16;75.30;95086.59;5053348;28;20220;-82
2021/06/25 08:56:05;;;;;;;4.35;3.25;;;21.50;94.50;;;22.34;73.82;95086.13;5041977;28;20217;-82
2021/06/25 08:58:32;;;;;;;2.92;2.72;;;21.60;94.80;;;22.54;74.77;95082.75;4956517;28;20194;-82
2021/06/25 09:01:00;;;;;;;3.10;2.78;;;21.70;95.00;;;22.77;75.24;95082.53;4787250;29;20217;-83
2021/06/25 09:03:29;;;;;;;2.75;2.55;;;21.80;95.10;;;22.87;71.41;95077.19;4655462;30;20217;-84
2021/06/25 09:06:14;;;;;;;2.80;2.60;;;22.00;94.50;;;22.94;73.11;95076.94;4461683;31;20303;-83
2021/06/25 09:11:24;;;;;;;2.83;2.63;;;22.10;94.10;;;22.89;73.18;95068.91;5139343;27;20561;-82
2021/06/25 09:14:02;;;;;;;2.38;2.20;;;22.20;93.70;;;22.90;73.43;95071.31;5085347;28;20237;-82
2021/06/25 09:16:32;;;;;;;2.70;2.50;;;22.20;93.70;;;22.97;74.49;95063.84;5051312;28;20286;-82
2021/06/25 09:19:07;;;;;;;2.05;1.92;;;22.20;94.20;;;23.05;72.08;95072.41;4983972;28;20752;-82
2021/06/25 09:21:44;;;;;;;2.00;1.90;;;22.30;93.80;;;23.01;69.84;95072.13;4998543;28;20218;-83
2021/06/25 09:24:23;;;;;;;1.90;1.80;;;22.30;93.20;;;22.97;70.42;95069.19;4919154;28;20251;-84
2021/06/25 09:26:57;;;;;;;1.80;1.70;;;22.40;93.20;;;23.03;69.07;95068.13;4865166;29;20607;-83
2021/06/25 09:31:35;;;;;;;2.10;1.90;;;22.30;93.00;;;23.34;71.38;95057.44;5139326;27;20560;-82
2021/06/25 09:34:03;;;;;;;1.73;1.60;;;22.50;94.10;;;23.55;73.10;95060.09;5089981;28;20262;-82
2021/06/25 09:36:35;;;;;;;2.00;1.77;;;22.60;94.40;;;23.72;73.60;95062.47;5080617;28;20284;-82
2021/06/25 09:39:05;;;;;;;1.60;1.50;;;22.70;94.30;;;23.86;72.92;95061.91;5021976;28;20227;-82
2021/06/25 09:41:32;;;;;;;1.70;1.60;;;22.90;94.10;;;23.91;71.33;95062.69;5003160;28;20216;-83
2021/06/25 09:44:08;;;;;;;1.52;1.42;;;23.00;94.00;;;23.98;72.69;95052.50;4941443;28;21411;-82
2021/06/25 09:46:40;;;;;;;1.52;1.42;;;23.10;93.60;;;24.12;72.97;95054.59;4772350;29;20220;-82
2021/06/25 09:49:12;;;;;;;1.73;1.63;;;23.20;94.30;;;24.25;71.42;95048.63;4741201;29;20271;-81
2021/06/25 09:53:31;;;;;;;1.92;1.77;;;23.30;93.70;;;24.49;66.16;95055.25;5145468;27;20559;-83
2021/06/25 09:56:00;;;;;;;1.60;1.50;;;23.40;93.00;;;24.62;64.46;95058.13;5085080;28;20197;-83
2021/06/25 10:03:56;;;;;;;1.60;1.50;;;23.80;92.00;;;24.65;67.22;95050.59;5015812;28;20242;-83
2021/06/25 10:06:34;;;;;;;1.73;1.60;;;23.80;92.00;;;24.51;66.03;95059.25;4967272;28;20210;-83
2021/06/25 10:09:02;;;;;;;1.60;1.50;;;23.80;91.40;;;24.42;65.33;95055.53;4829521;29;20287;-83
2021/06/25 10:14:05;;;;;;;1.25;1.25;;;23.80;91.20;;;24.72;70.08;95056.50;5128321;27;20589;-83
2021/06/25 10:16:32;;;;;;;1.58;1.48;;;23.80;92.50;;;24.90;68.03;95063.06;5088783;28;20206;-82
2021/06/25 10:19:00;;;;;;;1.50;1.40;;;23.90;92.50;;;25.03;69.05;95065.09;5096364;28;20331;-83
2021/06/25 10:21:32;;;;;;;1.38;1.27;;;24.00;92.30;;;24.99;66.05;95071.34;5065870;28;20350;-82
2021/06/25 10:24:02;;;;;;;1.40;1.33;;;24.10;91.00;;;24.91;64.26;95072.72;5026692;28;20293;-82
2021/06/25 10:26:30;;;;;;;1.20;1.20;;;24.10;90.40;;;24.94;66.38;95072.16;5026537;28;21333;-83
2021/06/25 10:28:57;;;;;;;1.27;1.23;;;24.20;90.80;;;25.00;62.57;95076.41;4974901;28;20226;-83
2021/06/25 10:31:25;;;;;;;1.48;1.38;;;24.20;90.90;;;25.04;60.56;95058.66;4830001;29;20428;-83
2021/06/25 10:36:32;;;;;;;1.30;1.30;;;24.20;89.50;;;25.40;65.24;95057.59;5141327;27;20547;-81
2021/06/25 10:39:10;;;;;;;1.20;1.20;;;24.40;90.20;;;25.54;61.24;95065.81;5073567;28;20261;-82
2021/06/25 10:42:09;;;;;;;1.15;1.10;;;24.60;88.50;;;25.53;58.61;95058.81;5067149;28;20221;-83
2021/06/25 10:44:56;;;;;;;1.48;1.00;;;24.70;86.90;;;25.57;61.93;95057.97;5018203;28;20280;-82
2021/06/25 10:47:33;;;;;;;1.10;1.10;;;24.80;86.60;;;25.61;60.97;95052.84;4954023;28;20205;-82
2021/06/25 10:50:00;;;;;;;1.15;1.13;;;24.80;84.70;;;25.66;60.18;95046.59;4915287;29;20254;-83
2021/06/25 10:52:33;;;;;;;1.00;1.00;;;24.90;85.20;;;25.71;61.66;95041.97;4832458;29;20444;-83
2021/06/25 10:58:06;;;;;;;1.10;1.10;;;24.90;85.80;;;25.76;61.49;95046.50;5150381;27;20934;-83
2021/06/25 11:00:39;;;;;;;1.00;1.00;;;25.00;85.30;;;25.88;62.42;95046.91;5070661;28;20222;-82
2021/06/25 11:03:31;;;;;;;0.93;0.93;;;25.10;84.70;;;26.01;62.91;95039.25;5051049;28;20206;-82
2021/06/25 11:05:58;;;;;;;0.80;0.80;;;25.20;86.80;;;26.07;62.70;95035.44;4992431;28;20203;-83
2021/06/25 11:08:25;;;;;;;0.95;0.95;;;25.30;85.50;;;26.16;62.75;95041.00;4902701;28;20235;-82
2021/06/25 11:10:59;;;;;;;0.90;0.90;;;25.40;85.50;;;26.26;63.61;95043.53;4754202;29;20227;-83
2021/06/25 11:13:35;;;;;;;1.00;1.00;;;25.50;84.40;;;26.29;61.91;95036.78;4695827;30;20702;-82
2021/06/25 11:18:44;;;;;;;0.90;0.90;;;25.70;85.60;;;26.53;63.23;95042.13;5146775;27;20658;-82
2021/06/25 11:21:11;;;;;;;0.98;0.98;;;25.70;84.10;;;26.64;64.06;95046.25;5069983;28;20558;-82
2021/06/25 11:23:37;;;;;;;1.00;1.00;;;25.80;85.70;;;26.78;63.40;95038.28;5027677;28;20231;-82
2021/06/25 11:26:25;;;;;;;0.88;0.85;;;25.90;85.70;;;26.91;63.62;95042.13;5037868;28;20255;-82
2021/06/25 11:28:54;;;;;;;1.10;1.00;;;26.10;84.70;;;27.02;63.50;95042.78;4983886;28;20572;-83
2021/06/25 11:31:24;;;;;;;0.95;0.95;;;26.20;84.90;;;27.17;63.62;95034.47;4947947;28;20737;-83
2021/06/25 11:36:49;;;;;;;1.67;1.05;;;26.40;85.40;;;27.52;61.46;95036.06;4803720;29;20250;-83
2021/06/25 11:42:15;;;;;;;1.17;1.17;;;26.50;83.30;;;27.67;60.99;95026.91;5149901;27;20395;-82
2021/06/25 11:44:48;;;;;;;1.10;1.10;;;26.80;83.10;;;27.61;59.41;95020.78;5078079;28;20239;-83
2021/06/25 11:47:25;;;;;;;1.00;1.00;;;26.80;81.20;;;27.53;60.64;95024.97;5066491;28;20310;-82
2021/06/25 11:52:32;;;;;;;1.00;1.00;;;26.90;81.60;;;27.50;60.61;95017.47;4919044;28;20237;-82